Whitworth, United Kingdom
Current Conditions -  °F | °C
As of 12:50 PM on Friday 28 Nov 2014 (Local Time) from EGCC Reporting Station
Broken Clouds Broken Clouds  
Wind Chill: 52°   Ceiling: 2500
Heat Index: 52°   Visibility: 6mi
Dew Point: 48°   Wind: 8mph
Humidity: 88%   Direction: 90°E
Pressure: 29.68"   Gusts: NA
Location:  53.66°N, 2.18°W
Report Text: EGCC 281250Z 09007KT 9999 SCT015 BKN025 11/09 Q1005 NOSIG
Loading
Personal Weather Stations






























Interactive Weather Map New forecast layout! Learn more

10-Day Weather Forecast

Advertisements
Track Severe Weather on mobile